Time;durP1;ratioP1;P1;durP2;ratioP2;P2;SDS_P1;SDS_P2;PMS_P1;PMS_P2;Temp;Humidity;BMP_temperature;BMP_pressure;BME280_temperature;BME280_humidity;BME280_pressure;Samples;Min_cycle;Max_cycle;Signal;HPM_P1;HPM_P2
2021/06/21 00:01:42;;;;;;;7.33;6.80;;;;;;;22.57;70.97;89572.97;5104465;28;20466;-74
2021/06/21 00:04:09;;;;;;;7.63;6.93;;;;;;;22.56;70.89;90092.31;5104386;28;20208;-73
2021/06/21 00:06:36;;;;;;;7.00;6.60;;;;;;;22.57;70.88;90062.00;5104753;28;20224;-74
2021/06/21 00:09:03;;;;;;;7.60;7.13;;;;;;;22.54;71.04;89948.63;5104593;28;20215;-74
2021/06/21 00:11:29;;;;;;;7.13;6.73;;;;;;;22.55;71.01;90413.78;5104416;28;20215;-73
2021/06/21 00:13:55;;;;;;;7.93;7.33;;;;;;;22.52;71.28;90396.69;5104013;28;20207;-74
2021/06/21 00:16:22;;;;;;;7.07;6.53;;;;;;;22.48;71.81;90475.47;5104242;28;20231;-73
2021/06/21 00:18:49;;;;;;;8.80;6.80;;;;;;;22.48;73.39;90454.22;5103938;28;20211;-74
2021/06/21 00:21:16;;;;;;;8.20;7.50;;;;;;;22.44;73.46;90951.47;5104348;28;20204;-74
2021/06/21 00:23:42;;;;;;;8.40;7.80;;;;;;;22.40;74.48;92021.72;5103781;28;20211;-74
2021/06/21 00:26:09;;;;;;;8.13;7.53;;;;;;;22.30;74.94;91524.97;5104039;28;20228;-73
2021/06/21 00:28:35;;;;;;;8.93;8.13;;;;;;;22.25;75.39;92311.41;5104218;28;20207;-74
2021/06/21 00:31:02;;;;;;;8.87;8.27;;;;;;;22.29;75.25;92062.13;5104272;28;20253;-74
2021/06/21 00:33:28;;;;;;;8.87;8.07;;;;;;;22.21;75.74;92425.31;5103271;28;20260;-73
2021/06/21 00:35:56;;;;;;;8.57;7.83;;;;;;;22.17;76.32;92817.09;5104264;28;20269;-74
2021/06/21 00:38:22;;;;;;;9.17;8.37;;;;;;;22.16;76.84;92669.59;5103922;28;20714;-74
2021/06/21 00:40:50;;;;;;;7.80;7.20;;;;;;;22.13;77.19;93644.16;5103788;28;20264;-74
2021/06/21 00:43:16;;;;;;;8.37;7.63;;;;;;;22.13;76.51;94400.69;5103484;28;20202;-73
2021/06/21 00:45:42;;;;;;;8.87;8.17;;;;;;;22.10;76.75;94461.44;5103607;28;20662;-74
2021/06/21 00:48:09;;;;;;;8.63;7.93;;;;;;;22.04;77.55;94731.34;5103767;28;20202;-74
2021/06/21 00:50:35;;;;;;;8.37;7.77;;;;;;;21.99;77.02;94976.28;5103714;28;20585;-74
2021/06/21 00:53:03;;;;;;;8.33;7.73;;;;;;;21.96;76.80;93713.44;5103728;28;20203;-74
2021/06/21 00:55:30;;;;;;;8.73;7.93;;;;;;;21.95;77.29;93708.41;5103475;28;20277;-74
2021/06/21 00:57:57;;;;;;;9.57;8.87;;;;;;;21.89;78.03;93736.00;5103240;28;20867;-73
2021/06/21 01:00:25;;;;;;;9.03;8.23;;;;;;;21.89;78.17;94288.72;5103456;28;20207;-74
2021/06/21 01:02:52;;;;;;;9.57;8.77;;;;;;;21.83;78.60;94032.34;5103178;28;20276;-74
2021/06/21 01:05:21;;;;;;;9.93;9.10;;;;;;;21.78;78.34;94183.53;5103312;28;20260;-75
2021/06/21 01:07:48;;;;;;;9.93;9.23;;;;;;;21.76;78.56;94381.97;5103220;28;20253;-75
2021/06/21 01:10:18;;;;;;;10.53;9.47;;;;;;;21.74;78.53;94426.53;5103177;28;20504;-74
2021/06/21 01:13:03;;;;;;;10.00;9.20;;;;;;;21.74;78.41;95272.94;5102870;28;20280;-74
2021/06/21 01:15:33;;;;;;;9.97;9.27;;;;;;;21.69;78.55;95371.81;5103626;28;20223;-74
2021/06/21 01:18:05;;;;;;;9.60;8.90;;;;;;;21.68;77.97;95118.13;5103272;28;20276;-75
2021/06/21 01:20:50;;;;;;;9.87;9.17;;;;;;;21.67;77.97;96657.56;5102978;28;20204;-74
2021/06/21 01:23:57;;;;;;;10.70;9.80;;;;;;;21.62;78.84;96459.06;5102548;28;20598;-74
2021/06/21 01:26:33;;;;;;;10.60;9.80;;;;;;;21.55;78.56;96073.47;5103262;28;20268;-75
2021/06/21 01:29:26;;;;;;;10.90;10.07;;;;;;;21.53;78.75;95560.81;5102957;28;20252;-74
2021/06/21 01:31:59;;;;;;;12.33;10.57;;;;;;;21.50;78.86;95746.94;5102991;28;20230;-75
2021/06/21 01:34:29;;;;;;;11.63;10.90;;;;;;;21.46;79.80;96119.78;5103006;28;20215;-74
2021/06/21 01:36:59;;;;;;;11.00;10.20;;;;;;;21.42;79.34;96847.13;5103002;28;20223;-75
2021/06/21 01:39:27;;;;;;;12.03;11.13;;;;;;;21.37;79.81;96297.69;5102741;28;20684;-75
2021/06/21 01:42:02;;;;;;;11.80;10.87;;;;;;;21.38;79.21;96192.41;5102360;28;20864;-74
2021/06/21 01:44:32;;;;;;;11.77;10.90;;;;;;;21.33;79.78;96247.91;5103195;28;20207;-75
2021/06/21 01:47:00;;;;;;;11.83;11.10;;;;;;;21.33;80.43;96417.69;5102878;28;20264;-75
2021/06/21 01:49:33;;;;;;;11.87;11.07;;;;;;;21.29;80.36;95763.94;5103142;28;20204;-75
2021/06/21 01:52:02;;;;;;;12.33;11.53;;;;;;;21.25;80.66;97564.63;5102240;28;20685;-74
2021/06/21 01:54:32;;;;;;;12.37;11.37;;;;;;;21.25;79.99;96853.66;5102394;28;20733;-74
2021/06/21 01:56:59;;;;;;;12.57;11.67;;;;;;;21.27;80.34;97108.13;5102395;28;20282;-75
2021/06/21 01:59:27;;;;;;;11.73;10.77;;;;;;;21.23;80.48;98153.81;5102939;28;20215;-74
2021/06/21 02:01:55;;;;;;;12.37;11.53;;;;;;;21.22;80.94;96899.94;5102513;28;20212;-74
2021/06/21 02:04:23;;;;;;;12.50;11.63;;;;;;;21.16;81.34;97165.91;5102533;28;20256;-75
2021/06/21 02:06:53;;;;;;;13.73;12.67;;;;;;;21.13;81.54;96601.38;5102290;28;20227;-74
2021/06/21 02:09:23;;;;;;;12.13;11.33;;;;;;;21.10;81.52;97115.41;5106115;28;20260;-74
2021/06/21 02:11:52;;;;;;;12.10;11.20;;;;;;;21.14;81.07;97535.78;5106633;28;20598;-75
2021/06/21 02:14:20;;;;;;;12.80;11.90;;;;;;;21.17;81.04;97838.72;5106398;28;20204;-75
2021/06/21 02:16:48;;;;;;;12.23;11.40;;;;;;;21.15;81.47;98134.31;5106436;28;20717;-75
2021/06/21 02:19:15;;;;;;;12.37;11.50;;;;;;;21.14;80.93;97422.53;5106627;28;20255;-75
2021/06/21 02:21:43;;;;;;;12.33;11.53;;;;;;;21.15;80.80;97352.59;5106238;28;20212;-75
2021/06/21 02:24:14;;;;;;;12.10;11.20;;;;;;;21.17;81.54;97148.19;5106037;28;20203;-75
2021/06/21 02:26:41;;;;;;;14.23;13.10;;;;;;;21.07;82.32;97286.31;5106494;27;20234;-75
2021/06/21 02:29:09;;;;;;;12.77;11.87;;;;;;;21.07;82.52;97802.69;5106244;28;20199;-74
2021/06/21 02:31:35;;;;;;;13.60;12.60;;;;;;;21.06;82.30;97857.56;5106240;27;20280;-74
2021/06/21 02:34:02;;;;;;;12.37;11.47;;;;;;;21.09;81.60;97788.28;5106199;28;20253;-75
2021/06/21 02:36:28;;;;;;;14.13;13.13;;;;;;;21.04;82.06;98411.28;5106254;28;20223;-75
2021/06/21 02:38:55;;;;;;;13.93;12.93;;;;;;;21.02;82.55;100332.44;5106032;28;20265;-75
2021/06/21 02:41:23;;;;;;;13.77;12.70;;;;;;;21.00;82.55;98834.34;5106317;28;20210;-75
2021/06/21 02:43:49;;;;;;;13.80;12.90;;;;;;;21.03;81.93;99400.06;5105563;28;20207;-75
2021/06/21 02:46:15;;;;;;;13.73;12.83;;;;;;;21.06;81.72;98286.47;5105881;28;20274;-74
2021/06/21 02:48:42;;;;;;;13.43;12.43;;;;;;;21.02;81.61;97951.69;5105898;28;20199;-75
2021/06/21 02:51:13;;;;;;;12.83;11.93;;;;;;;21.02;81.55;99044.63;5105893;28;20257;-75
2021/06/21 02:53:44;;;;;;;13.50;12.57;;;;;;;21.00;82.11;99097.81;5105944;28;20207;-75
2021/06/21 02:56:14;;;;;;;12.70;11.80;;;;;;;20.99;82.25;98493.97;5106099;28;20272;-75
2021/06/21 02:58:44;;;;;;;12.80;11.90;;;;;;;21.01;81.41;98454.03;5105894;28;20227;-75
2021/06/21 03:01:13;;;;;;;12.67;11.73;;;;;;;20.97;82.01;99596.88;5105623;28;20203;-75
2021/06/21 03:03:43;;;;;;;13.73;12.80;;;;;;;20.97;82.30;100296.53;5105788;28;20203;-75
2021/06/21 03:06:09;;;;;;;14.20;13.13;;;;;;;20.96;82.77;99042.50;5106066;28;20226;-75
2021/06/21 03:08:39;;;;;;;14.47;13.40;;;;;;;20.85;83.24;98056.81;5105641;27;20256;-75
2021/06/21 03:11:08;;;;;;;14.10;13.10;;;;;;;20.89;82.79;99380.88;5105233;28;20727;-75
2021/06/21 03:13:37;;;;;;;13.60;12.60;;;;;;;20.93;82.53;97939.38;5104810;28;20208;-75
2021/06/21 03:16:06;;;;;;;14.50;13.53;;;;;;;20.88;83.07;98077.75;5105613;28;20227;-75
2021/06/21 03:18:34;;;;;;;14.00;13.07;;;;;;;20.82;83.48;98309.06;5104606;28;20231;-75
2021/06/21 03:21:01;;;;;;;15.00;13.50;;;;;;;20.88;83.31;97017.13;5104427;28;20204;-75
2021/06/21 03:23:30;;;;;;;14.47;13.50;;;;;;;20.81;83.53;98698.06;5105770;28;20256;-75
2021/06/21 03:25:58;;;;;;;14.50;13.40;;;;;;;20.68;84.23;98930.81;5105182;28;20279;-76
2021/06/21 03:28:25;;;;;;;12.90;12.07;;;;;;;20.74;84.07;98044.66;5105053;27;20207;-75
2021/06/21 03:30:54;;;;;;;12.33;11.53;;;;;;;20.85;83.97;99833.03;5104940;28;20265;-75
2021/06/21 03:33:21;;;;;;;13.17;12.37;;;;;;;20.87;83.10;99690.53;5104548;28;20264;-74
2021/06/21 03:35:49;;;;;;;12.67;11.80;;;;;;;20.84;83.24;99269.84;5104927;27;20227;-75
2021/06/21 03:38:18;;;;;;;12.80;12.00;;;;;;;20.87;83.27;98961.06;5105809;28;20257;-75
2021/06/21 03:40:46;;;;;;;13.03;12.23;;;;;;;20.90;82.96;98584.16;5105413;28;20199;-75
2021/06/21 03:43:12;;;;;;;12.00;11.23;;;;;;;20.90;83.23;100235.06;5104887;28;20210;-75
2021/06/21 03:45:39;;;;;;;12.57;11.77;;;;;;;20.90;82.54;99139.34;5104891;28;20298;-75
2021/06/21 03:48:06;;;;;;;11.87;11.00;;;;;;;20.89;82.66;99757.59;5105038;28;20207;-75
2021/06/21 03:50:34;;;;;;;12.13;11.33;;;;;;;20.88;82.65;98769.13;5104650;28;20753;-75
2021/06/21 03:53:00;;;;;;;11.50;10.80;;;;;;;20.89;83.26;99235.84;5105094;28;20203;-75
2021/06/21 03:55:27;;;;;;;11.67;10.97;;;;;;;20.91;83.25;98944.75;5104747;28;20473;-74
2021/06/21 03:57:55;;;;;;;12.90;12.10;;;;;;;20.92;83.35;98948.25;5104513;28;20709;-75
2021/06/21 04:00:23;;;;;;;13.07;12.17;;;;;;;20.89;83.93;99257.06;5104715;28;20215;-75
2021/06/21 04:02:50;;;;;;;13.27;12.47;;;;;;;20.81;84.44;99265.63;5104214;28;20223;-75
2021/06/21 04:05:17;;;;;;;12.37;11.57;;;;;;;20.82;84.00;99880.06;5104433;28;20334;-75
2021/06/21 04:07:46;;;;;;;12.37;11.63;;;;;;;20.86;84.10;99442.97;5104739;28;20215;-74
2021/06/21 04:10:15;;;;;;;11.07;10.30;;;;;;;20.86;84.15;99469.50;5105397;28;20207;-75
2021/06/21 04:12:42;;;;;;;11.10;10.10;;;;;;;20.86;84.46;98630.50;5104176;28;20199;-75
2021/06/21 04:15:11;;;;;;;11.80;11.10;;;;;;;20.92;84.55;98611.38;5104848;28;20242;-75
2021/06/21 04:17:39;;;;;;;12.03;11.13;;;;;;;20.92;84.74;98994.19;5104063;28;20682;-75
2021/06/21 04:20:09;;;;;;;10.80;10.17;;;;;;;20.95;83.93;98980.66;5104208;28;20203;-74
2021/06/21 04:22:36;;;;;;;10.93;10.13;;;;;;;20.94;84.24;99331.78;5104916;28;20242;-74
2021/06/21 04:25:04;;;;;;;11.93;11.13;;;;;;;21.00;83.72;97782.09;5105442;28;20219;-74
2021/06/21 04:27:30;;;;;;;12.17;11.37;;;;;;;21.01;83.95;98791.78;5104579;28;20213;-74
2021/06/21 04:29:57;;;;;;;11.50;10.80;;;;;;;21.04;83.65;98928.59;5103934;28;20214;-75
2021/06/21 04:32:23;;;;;;;11.30;10.60;;;;;;;21.12;83.39;99243.72;5103969;28;20211;-74
2021/06/21 04:34:50;;;;;;;10.50;9.90;;;;;;;21.08;83.43;99107.78;5103946;28;20203;-74
2021/06/21 04:37:16;;;;;;;10.93;10.33;;;;;;;21.13;83.80;98869.44;5103765;27;20211;-74
2021/06/21 04:39:42;;;;;;;12.07;11.17;;;;;;;21.18;83.56;98614.28;5103742;28;20207;-74
2021/06/21 04:42:10;;;;;;;12.33;11.57;;;;;;;21.13;83.84;98935.78;5103530;28;20734;-74
2021/06/21 04:44:37;;;;;;;10.40;9.67;;;;;;;21.20;83.55;98793.59;5103750;28;20758;-74
2021/06/21 04:47:04;;;;;;;9.57;8.97;;;;;;;21.19;83.37;98720.28;5103403;28;20203;-74
2021/06/21 04:49:30;;;;;;;10.67;10.07;;;;;;;21.18;84.03;98797.38;5103489;28;20208;-74
2021/06/21 04:51:58;;;;;;;12.07;11.37;;;;;;;21.21;84.06;98996.16;5103304;28;20616;-75
2021/06/21 04:54:25;;;;;;;10.87;10.17;;;;;;;21.22;83.76;98870.44;5102506;27;20210;-74
2021/06/21 04:56:51;;;;;;;9.67;9.07;;;;;;;21.28;84.03;99304.34;5103534;27;20653;-75
2021/06/21 04:59:19;;;;;;;9.07;8.57;;;;;;;21.37;82.95;99110.66;5104042;27;20584;-74
2021/06/21 05:01:45;;;;;;;8.30;7.80;;;;;;;21.39;82.71;99123.81;5104316;27;20260;-74
2021/06/21 05:04:11;;;;;;;8.50;7.90;;;;;;;21.41;81.93;98597.06;5103436;27;20203;-75
2021/06/21 05:06:38;;;;;;;9.50;9.00;;;;;;;21.46;82.58;98769.22;5104450;28;20257;-75
2021/06/21 05:09:07;;;;;;;9.20;8.60;;;;;;;21.41;82.19;98772.25;5103910;27;20219;-75
2021/06/21 05:11:34;;;;;;;10.20;9.57;;;;;;;21.45;83.15;99111.81;5103862;27;20662;-75
2021/06/21 05:14:01;;;;;;;10.40;9.80;;;;;;;21.50;82.65;98762.63;5103532;27;20641;-75
2021/06/21 05:16:29;;;;;;;8.00;7.50;;;;;;;21.52;82.21;98706.75;5103088;27;20276;-75
2021/06/21 05:18:55;;;;;;;7.60;7.13;;;;;;;21.53;83.53;99168.63;5103581;27;20637;-76
2021/06/21 05:21:22;;;;;;;6.97;6.57;;;;;;;21.55;82.38;98704.66;5103769;27;20211;-75
2021/06/21 05:23:48;;;;;;;7.33;6.90;;;;;;;21.53;82.27;98794.25;5103250;28;20947;-75
2021/06/21 05:26:15;;;;;;;7.50;7.00;;;;;;;21.53;83.35;98804.03;5103792;28;20276;-75
2021/06/21 05:28:41;;;;;;;7.43;7.03;;;;;;;21.51;84.23;99145.84;5103354;27;20199;-75
2021/06/21 05:31:07;;;;;;;7.10;6.67;;;;;;;21.47;83.56;98778.88;5103697;27;20207;-75
2021/06/21 05:33:35;;;;;;;9.67;9.07;;;;;;;21.49;84.52;98845.09;5102230;28;20240;-75
2021/06/21 05:36:02;;;;;;;8.10;7.60;;;;;;;21.45;84.35;99194.13;5102574;27;20261;-75
2021/06/21 05:38:28;;;;;;;8.73;8.23;;;;;;;21.52;83.91;98807.66;5102692;27;20227;-75
2021/06/21 05:40:54;;;;;;;8.13;7.67;;;;;;;21.55;83.42;99295.97;5103303;27;20264;-75
2021/06/21 05:43:21;;;;;;;8.77;8.27;;;;;;;21.61;83.09;98854.63;5101640;28;20203;-75
2021/06/21 05:45:47;;;;;;;7.80;7.30;;;;;;;21.71;81.97;98684.66;5103179;28;20231;-74
2021/06/21 05:48:13;;;;;;;9.37;8.60;;;;;;;21.80;82.16;98761.66;5103180;28;20670;-75
2021/06/21 05:50:42;;;;;;;8.83;8.30;;;;;;;21.91;81.82;98396.69;5103666;28;20215;-75
2021/06/21 05:53:09;;;;;;;8.47;7.87;;;;;;;22.01;80.17;98502.91;5102932;28;20289;-76
2021/06/21 05:55:35;;;;;;;8.17;7.53;;;;;;;22.07;79.59;98746.78;5101031;28;20277;-76
2021/06/21 05:58:01;;;;;;;8.03;7.43;;;;;;;22.07;80.36;98652.94;5102838;28;20673;-77
2021/06/21 06:00:28;;;;;;;8.13;7.63;;;;;;;22.00;80.54;99006.06;5103034;28;20252;-76
2021/06/21 06:02:54;;;;;;;8.27;7.67;;;;;;;21.99;81.11;98977.81;5103316;28;20856;-76
2021/06/21 06:05:21;;;;;;;6.93;6.53;;;;;;;22.05;81.12;98735.44;5103280;28;20271;-75
2021/06/21 06:07:50;;;;;;;6.33;6.03;;;;;;;22.06;79.93;99004.66;5103611;28;20203;-75
2021/06/21 06:10:17;;;;;;;7.60;7.10;;;;;;;22.06;81.29;99262.44;5103211;28;20703;-74
2021/06/21 06:12:44;;;;;;;7.47;7.07;;;;;;;22.04;82.45;99980.22;5102132;28;20263;-73
2021/06/21 06:15:12;;;;;;;8.20;7.70;;;;;;;22.04;82.50;99788.84;5102292;28;20223;-74
2021/06/21 06:17:39;;;;;;;7.73;7.23;;;;;;;22.07;82.20;99838.25;5102952;28;20243;-74
2021/06/21 06:20:06;;;;;;;7.10;6.70;;;;;;;21.98;81.52;99552.75;5103235;28;20584;-73
2021/06/21 06:22:33;;;;;;;8.00;7.40;;;;;;;21.95;82.20;99274.84;5101857;28;20200;-74
2021/06/21 06:25:01;;;;;;;8.20;7.57;;;;;;;21.87;83.21;99271.16;5103563;28;20295;-74
2021/06/21 06:27:27;;;;;;;7.80;7.30;;;;;;;21.85;83.43;99008.28;5102999;28;20303;-75
2021/06/21 06:29:54;;;;;;;7.33;6.90;;;;;;;21.83;83.31;99195.34;5103251;28;20200;-76
2021/06/21 06:32:20;;;;;;;6.87;6.47;;;;;;;21.80;82.68;99196.44;5103390;28;20208;-75
2021/06/21 06:34:46;;;;;;;7.20;6.70;;;;;;;21.83;82.39;99448.59;5103255;28;20214;-75
2021/06/21 06:37:13;;;;;;;8.30;7.70;;;;;;;21.85;83.24;98991.50;5103347;28;20208;-75
2021/06/21 06:39:39;;;;;;;8.20;7.57;;;;;;;21.86;84.48;99660.88;5102758;28;20280;-74
2021/06/21 06:42:07;;;;;;;7.27;6.73;;;;;;;21.93;84.05;100144.91;5102561;28;20872;-75
2021/06/21 06:44:36;;;;;;;7.10;6.53;;;;;;;21.96;83.53;98789.44;5103328;28;20211;-74
2021/06/21 06:47:02;;;;;;;6.00;5.60;;;;;;;22.00;82.68;99253.19;5103269;28;20596;-75
2021/06/21 06:49:28;;;;;;;6.00;5.50;;;;;;;21.97;82.25;98974.47;5103777;28;20249;-75
2021/06/21 06:51:56;;;;;;;6.57;6.17;;;;;;;21.96;83.31;99278.34;5102113;28;20628;-74
2021/06/21 06:54:25;;;;;;;7.03;6.60;;;;;;;21.96;84.27;99113.59;5105205;27;20213;-75
2021/06/21 06:56:58;;;;;;;6.83;6.30;;;;;;;21.90;84.25;100177.00;5106585;27;21070;-75
2021/06/21 06:59:27;;;;;;;5.53;5.13;;;;;;;22.06;84.52;100402.72;5106873;27;20736;-74
2021/06/21 07:01:53;;;;;;;6.50;6.00;;;;;;;22.21;84.32;98144.81;5106209;27;20202;-76
2021/06/21 07:04:20;;;;;;;7.07;6.43;;;;;;;22.27;84.51;99491.09;5106764;27;21188;-75
2021/06/21 07:06:46;;;;;;;6.23;5.70;;;;;;;22.34;84.29;100359.22;5106639;27;20264;-75
2021/06/21 07:09:13;;;;;;;6.67;6.20;;;;;;;22.40;84.50;99858.75;5106591;27;20199;-75
2021/06/21 07:11:40;;;;;;;6.20;5.70;;;;;;;22.39;84.19;99879.16;5106881;27;21328;-75
2021/06/21 07:14:08;;;;;;;6.53;6.03;;;;;;;22.43;84.51;99889.59;5106196;27;20668;-74
2021/06/21 07:16:36;;;;;;;6.67;6.17;;;;;;;22.44;84.25;99673.19;5106754;27;20288;-74
2021/06/21 07:19:04;;;;;;;6.30;5.80;;;;;;;22.48;83.62;99879.44;5106390;27;20234;-75
2021/06/21 07:21:31;;;;;;;5.70;5.27;;;;;;;22.47;82.91;100110.00;5108088;27;20208;-76
2021/06/21 07:23:57;;;;;;;5.70;5.40;;;;;;;22.57;82.61;99902.66;5109382;27;20219;-76
2021/06/21 07:26:24;;;;;;;6.33;5.90;;;;;;;22.62;81.56;100129.31;5109516;27;20721;-76
2021/06/21 07:28:51;;;;;;;6.47;5.97;;;;;;;22.63;80.75;100374.91;5107068;27;20199;-76
2021/06/21 07:31:17;;;;;;;5.77;5.40;;;;;;;22.83;81.07;100502.09;5106358;27;20290;-76
2021/06/21 07:33:45;;;;;;;6.33;5.83;;;;;;;22.97;81.15;100312.13;5106173;27;20203;-75
2021/06/21 07:36:12;;;;;;;5.77;5.27;;;;;;;23.02;79.87;100578.94;5106201;27;20219;-76
2021/06/21 07:38:40;;;;;;;5.83;5.43;;;;;;;22.89;79.71;100420.97;5105695;27;20802;-75
2021/06/21 07:41:07;;;;;;;6.13;5.60;;;;;;;22.91;79.42;100499.78;5106114;27;20808;-75
2021/06/21 07:43:33;;;;;;;5.83;5.27;;;;;;;22.89;80.03;99957.84;5105824;27;20200;-75
2021/06/21 07:46:00;;;;;;;6.00;5.50;;;;;;;22.90;79.96;100053.53;5106070;27;20223;-76
2021/06/21 07:48:26;;;;;;;5.47;5.03;;;;;;;22.70;79.82;100712.34;5105692;27;20203;-74
2021/06/21 07:50:54;;;;;;;6.07;5.00;;;;;;;22.61;80.04;100579.91;5105488;27;20240;-74
2021/06/21 07:53:20;;;;;;;5.57;4.37;;;;;;;22.66;79.28;101010.72;5105399;27;20204;-76
2021/06/21 07:55:47;;;;;;;5.17;4.77;;;;;;;22.71;79.53;100327.31;5105249;27;20360;-75
2021/06/21 07:58:13;;;;;;;5.20;4.70;;;;;;;22.80;79.57;100306.22;5106385;27;20249;-76
2021/06/21 08:00:40;;;;;;;5.80;5.30;;;;;;;22.85;80.94;100683.84;5105532;27;20227;-75
2021/06/21 08:03:10;;;;;;;4.80;4.27;;;;;;;22.99;79.46;99849.66;5105335;27;20784;-75
2021/06/21 08:05:38;;;;;;;5.13;4.57;;;;;;;23.05;78.55;100181.97;5104760;27;20229;-76
2021/06/21 08:08:07;;;;;;;4.77;4.30;;;;;;;23.14;78.79;99912.38;5104987;27;20623;-76
2021/06/21 08:10:33;;;;;;;4.23;3.83;;;;;;;22.91;77.44;100078.34;5105415;27;20204;-75
2021/06/21 08:13:00;;;;;;;10.23;4.00;;;;;;;23.05;78.81;99800.44;5105282;27;20615;-76
2021/06/21 08:15:27;;;;;;;7.63;3.30;;;;;;;22.88;76.40;99890.47;5105562;27;20283;-76
2021/06/21 08:17:53;;;;;;;3.57;3.00;;;;;;;22.94;75.61;100097.59;5105047;27;20550;-76
2021/06/21 08:20:20;;;;;;;6.10;3.03;;;;;;;22.92;76.34;100985.16;5104490;27;20786;-75
2021/06/21 08:22:46;;;;;;;7.00;2.70;;;;;;;22.85;74.59;100223.38;5104833;27;20205;-74
2021/06/21 08:25:14;;;;;;;7.17;2.57;;;;;;;22.84;73.95;100716.78;5105286;27;21202;-76
2021/06/21 08:27:41;;;;;;;6.37;2.73;;;;;;;22.59;72.96;100345.84;5105099;27;20664;-75
2021/06/21 08:30:09;;;;;;;3.83;2.60;;;;;;;22.36;74.17;100015.06;5105028;28;20204;-76
2021/06/21 08:32:35;;;;;;;4.47;1.93;;;;;;;22.41;76.51;99927.78;5103760;27;20211;-76
2021/06/21 08:35:04;;;;;;;3.70;2.40;;;;;;;22.48;76.31;99887.44;5104460;27;21204;-75
2021/06/21 08:37:30;;;;;;;7.80;2.60;;;;;;;22.52;77.33;99641.50;5105274;27;20214;-75
2021/06/21 08:39:57;;;;;;;5.07;2.57;;;;;;;22.46;74.93;99927.44;5105193;27;20230;-76
2021/06/21 08:42:25;;;;;;;3.77;2.40;;;;;;;22.46;74.49;100079.03;5103886;27;20286;-74
2021/06/21 08:44:51;;;;;;;5.73;2.70;;;;;;;22.41;74.58;100018.19;5104874;27;20203;-75
2021/06/21 08:47:19;;;;;;;11.87;2.57;;;;;;;22.51;75.73;99751.53;5105215;27;20333;-75
2021/06/21 08:49:47;;;;;;;7.13;2.50;;;;;;;22.52;73.58;99860.47;5104919;27;20202;-76
2021/06/21 08:52:15;;;;;;;5.73;2.40;;;;;;;22.44;73.10;99989.66;5104658;28;20206;-75
2021/06/21 08:54:42;;;;;;;2.63;2.00;;;;;;;22.65;74.40;100553.94;5103989;27;20724;-75
2021/06/21 08:57:09;;;;;;;2.83;2.20;;;;;;;22.78;74.25;99745.81;5104032;27;20237;-77
2021/06/21 08:59:38;;;;;;;4.53;2.23;;;;;;;22.84;73.65;99825.13;5104144;27;20644;-76
2021/06/21 09:02:06;;;;;;;8.60;2.80;;;;;;;22.95;74.07;99765.69;5104604;27;20209;-76
2021/06/21 09:04:37;;;;;;;4.63;2.50;;;;;;;22.94;72.73;99850.03;5104415;27;20233;-76
2021/06/21 09:07:17;;;;;;;5.07;2.30;;;;;;;22.96;71.94;99922.63;5104123;28;20219;-76
2021/06/21 09:09:44;;;;;;;5.93;2.53;;;;;;;23.18;72.52;99943.09;5104431;27;20256;-76
2021/06/21 09:12:11;;;;;;;4.53;2.30;;;;;;;23.34;72.04;99982.69;5103263;27;20203;-76
2021/06/21 09:14:40;;;;;;;6.60;2.50;;;;;;;23.38;70.23;100431.66;5104199;27;20468;-76
2021/06/21 09:17:08;;;;;;;6.17;2.40;;;;;;;23.48;69.99;100103.28;5103934;27;20238;-75
2021/06/21 09:19:47;;;;;;;5.93;2.40;;;;;;;23.38;69.99;99917.53;5103518;27;20292;-76
2021/06/21 09:22:28;;;;;;;5.77;2.20;;;;;;;23.39;69.35;99977.00;5103505;27;20268;-75
2021/06/21 09:24:54;;;;;;;6.13;2.23;;;;;;;23.48;69.60;99938.94;5104054;27;20219;-76
2021/06/21 09:27:22;;;;;;;5.23;2.03;;;;;;;23.32;69.27;100040.53;5104541;27;20249;-74
2021/06/21 09:29:52;;;;;;;6.10;2.73;;;;;;;23.32;69.65;99971.28;5103975;28;20256;-75
2021/06/21 09:32:19;;;;;;;3.90;2.40;;;;;;;23.37;70.64;99899.88;5103961;27;20208;-76
2021/06/21 09:34:45;;;;;;;3.60;2.07;;;;;;;23.47;70.68;99857.34;5103815;27;20259;-74
2021/06/21 09:37:13;;;;;;;5.13;2.03;;;;;;;23.51;69.26;100063.94;5104017;28;20212;-77
2021/06/21 09:39:42;;;;;;;5.80;2.37;;;;;;;23.61;70.18;100104.03;5103652;27;20783;-74
2021/06/21 09:42:15;;;;;;;4.50;2.10;;;;;;;23.63;69.13;99979.50;5103934;28;20207;-75
2021/06/21 09:44:44;;;;;;;4.23;2.33;;;;;;;23.79;71.81;99838.69;5103761;28;20215;-75
2021/06/21 09:47:28;;;;;;;3.37;2.07;;;;;;;23.95;71.23;99858.75;5104175;28;20204;-74
2021/06/21 09:50:12;;;;;;;8.03;2.63;;;;;;;23.83;68.26;100009.06;5102210;28;20704;-75
2021/06/21 09:52:45;;;;;;;3.60;2.03;;;;;;;23.78;67.78;100004.94;5103353;28;20214;-75
2021/06/21 09:55:15;;;;;;;5.33;2.47;;;;;;;23.91;67.96;99978.13;5104110;28;20284;-74
2021/06/21 09:57:42;;;;;;;3.93;2.20;;;;;;;23.69;65.96;100357.44;5103666;28;20790;-75
2021/06/21 10:00:10;;;;;;;4.00;2.13;;;;;;;23.59;66.28;100207.22;5103390;28;20256;-76
2021/06/21 10:02:38;;;;;;;5.50;2.13;;;;;;;23.73;67.55;100057.72;5103283;28;20207;-76
2021/06/21 10:05:07;;;;;;;3.23;2.17;;;;;;;23.87;66.43;99983.84;5103671;28;20283;-74
2021/06/21 10:07:35;;;;;;;4.60;2.00;;;;;;;23.89;66.72;100032.53;5103912;28;20199;-73
2021/06/21 10:10:05;;;;;;;3.83;1.80;;;;;;;23.99;66.34;100029.00;5103687;28;20199;-75
2021/06/21 10:12:32;;;;;;;5.87;2.10;;;;;;;24.09;67.25;100074.41;5103113;28;20211;-74
2021/06/21 10:14:59;;;;;;;5.80;1.90;;;;;;;24.01;65.66;100410.19;5102903;28;20238;-75
2021/06/21 10:17:26;;;;;;;4.57;2.10;;;;;;;24.12;65.30;100174.66;5103700;28;20252;-76
2021/06/21 10:19:54;;;;;;;3.53;1.90;;;;;;;24.19;64.83;100181.19;5103644;28;20223;-75
2021/06/21 10:22:21;;;;;;;4.13;2.30;;;;;;;24.37;64.89;100136.19;5103596;28;20234;-75
2021/06/21 10:24:49;;;;;;;3.27;1.77;;;;;;;24.27;63.97;100146.75;5102963;28;20203;-75
2021/06/21 10:27:18;;;;;;;3.63;1.97;;;;;;;23.97;63.40;100249.56;5102512;28;20264;-74
2021/06/21 10:29:45;;;;;;;4.80;1.90;;;;;;;23.87;65.22;100109.13;5105917;27;20252;-75
2021/06/21 10:32:11;;;;;;;3.80;1.77;;;;;;;23.90;66.01;100052.88;5107368;27;20911;-75
2021/06/21 10:34:38;;;;;;;2.87;1.87;;;;;;;23.98;65.91;100208.63;5106866;27;20207;-74
2021/06/21 10:37:13;;;;;;;5.27;2.03;;;;;;;23.85;63.24;100229.22;5107291;27;20261;-73
2021/06/21 10:39:46;;;;;;;5.33;2.43;;;;;;;23.80;64.39;100226.03;5106628;27;20226;-75
2021/06/21 10:42:21;;;;;;;3.93;2.00;;;;;;;23.90;65.90;100140.84;5107343;27;20208;-73
2021/06/21 10:44:51;;;;;;;4.00;1.90;;;;;;;23.99;65.92;100054.81;5107112;27;20211;-76
2021/06/21 10:47:25;;;;;;;7.27;2.17;;;;;;;24.01;66.25;100100.03;5107589;27;20223;-76
2021/06/21 10:49:56;;;;;;;3.40;2.10;;;;;;;23.95;68.41;100216.00;5105789;27;20280;-75
2021/06/21 10:52:36;;;;;;;4.17;2.20;;;;;;;23.81;66.23;100147.78;5106248;27;20211;-75
2021/06/21 10:55:35;;;;;;;2.20;1.83;;;;;;;23.75;65.94;100255.69;5106900;27;20732;-73
2021/06/21 10:58:04;;;;;;;7.40;2.00;;;;;;;23.92;66.57;100046.44;5083334;27;20207;-74
2021/06/21 11:00:33;;;;;;;3.63;1.90;;;;;;;24.14;67.49;100037.56;5105902;27;20241;-74
2021/06/21 11:03:00;;;;;;;4.77;2.27;;;;;;;24.00;65.89;100080.47;5105612;27;20209;-74
2021/06/21 11:05:34;;;;;;;4.67;2.03;;;;;;;24.01;65.94;100111.53;5111884;27;20277;-75
2021/06/21 11:08:16;;;;;;;4.83;1.90;;;;;;;24.07;65.52;100604.41;5113412;27;20195;-74
2021/06/21 11:10:44;;;;;;;5.27;2.03;;;;;;;24.29;66.13;100160.81;5113182;27;20662;-75
2021/06/21 11:13:40;;;;;;;3.20;1.90;;;;;;;24.72;64.75;100245.44;5108974;27;20742;-75
2021/06/21 11:16:20;;;;;;;3.33;2.17;;;;;;;25.01;64.13;100262.69;5108895;27;20613;-75
2021/06/21 11:18:49;;;;;;;3.53;2.37;;;;;;;24.97;62.60;100248.75;5106394;27;20216;-72
2021/06/21 11:21:16;;;;;;;2.67;1.80;;;;;;;25.20;64.58;100283.41;5104335;28;20641;-73
2021/06/21 11:23:45;;;;;;;4.17;2.20;;;;;;;24.96;62.99;100193.66;5105466;28;20203;-76
2021/06/21 11:26:11;;;;;;;4.37;1.93;;;;;;;25.06;64.34;100109.09;5105514;28;20235;-76
2021/06/21 11:28:40;;;;;;;3.07;1.63;;;;;;;24.84;64.22;100138.59;5105512;28;20275;-75
2021/06/21 11:31:30;;;;;;;3.00;1.60;;;;;;;24.81;64.61;100224.28;5105986;28;20196;-75
2021/06/21 11:34:00;;;;;;;6.83;1.90;;;;;;;24.57;64.56;100282.19;5089077;28;20448;-76